TimeEDT,TemperatureF,Dew PointF,Humidity,Sea Level PressureIn,VisibilityMPH,Wind Direction,Wind SpeedMPH,Gust SpeedMPH,PrecipitationIn,Events,Conditions,WindDirDegrees,DateUTC
12:53 AM,77.0,63.0,62,29.82,10.0,SW,6.9,-,N/A,,Clear,220,2013-05-21 04:53:00
1:53 AM,75.9,64.0,67,29.82,10.0,SSW,6.9,-,N/A,,Clear,210,2013-05-21 05:53:00
2:53 AM,75.0,64.9,71,29.80,10.0,SSW,8.1,-,N/A,,Clear,210,2013-05-21 06:53:00
3:53 AM,73.9,64.9,73,29.80,10.0,SSW,8.1,-,N/A,,Clear,210,2013-05-21 07:53:00
4:53 AM,73.9,64.9,73,29.79,10.0,SSW,6.9,-,N/A,,Clear,200,2013-05-21 08:53:00
5:53 AM,72.0,64.9,78,29.81,10.0,South,6.9,-,N/A,,Partly Cloudy,180,2013-05-21 09:53:00
6:53 AM,72.0,64.9,78,29.80,9.0,South,6.9,-,N/A,,Clear,170,2013-05-21 10:53:00
7:53 AM,73.0,66.0,79,29.80,9.0,SSW,8.1,-,N/A,,Partly Cloudy,200,2013-05-21 11:53:00
8:53 AM,75.0,66.9,76,29.78,10.0,SSW,10.4,-,N/A,,Clear,210,2013-05-21 12:53:00
9:40 AM,75.2,66.2,73,29.80,10.0,SW,11.5,20.7,N/A,,Mostly Cloudy,220,2013-05-21 13:40:00
9:53 AM,75.9,66.9,74,29.80,10.0,SSW,15.0,26.5,N/A,,Mostly Cloudy,210,2013-05-21 13:53:00
10:05 AM,77.0,66.2,69,29.81,10.0,SSW,13.8,20.7,N/A,,Scattered Clouds,200,2013-05-21 14:05:00
10:53 AM,80.1,68.0,67,29.79,10.0,SSW,10.4,-,N/A,,Scattered Clouds,200,2013-05-21 14:53:00
11:53 AM,82.9,62.1,49,29.78,10.0,SW,9.2,17.3,N/A,,Clear,220,2013-05-21 15:53:00
12:53 PM,84.0,59.0,43,29.76,10.0,SW,16.1,23.0,N/A,,Partly Cloudy,230,2013-05-21 16:53:00
1:53 PM,84.0,61.0,46,29.76,10.0,SW,15.0,-,N/A,,Scattered Clouds,230,2013-05-21 17:53:00
2:53 PM,80.1,57.9,47,29.76,10.0,SSW,16.1,25.3,N/A,,Overcast,200,2013-05-21 18:53:00
3:53 PM,84.0,60.1,44,29.73,10.0,West,12.7,-,N/A,,Clear,260,2013-05-21 19:53:00
4:53 PM,84.0,57.0,40,29.73,10.0,WSW,17.3,28.8,N/A,,Clear,240,2013-05-21 20:53:00
5:53 PM,84.9,59.0,41,29.72,10.0,West,11.5,21.9,N/A,,Mostly Cloudy,260,2013-05-21 21:53:00
6:53 PM,84.0,57.9,41,29.71,10.0,WSW,13.8,21.9,N/A,,Clear,250,2013-05-21 22:53:00
7:53 PM,82.9,57.9,42,29.72,10.0,WSW,6.9,-,N/A,,Clear,250,2013-05-21 23:53:00
8:53 PM,82.9,59.0,44,29.72,10.0,WNW,3.5,-,N/A,,Clear,300,2013-05-22 00:53:00
9:53 PM,79.0,60.1,52,29.73,10.0,Calm,Calm,-,N/A,,Scattered Clouds,0,2013-05-22 01:53:00
10:53 PM,75.9,62.1,62,29.75,10.0,SSW,4.6,-,0.00,Rain,Light Rain,210,2013-05-22 02:53:00
11:53 PM,71.1,66.0,84,29.75,10.0,Calm,Calm,-,0.05,,Overcast,0,2013-05-22 03:53:00